createdAt,value
2018-05-24T00:00:35.652Z,14.70
2018-05-24T00:03:03.367Z,14.60
2018-05-24T00:05:30.839Z,14.40
2018-05-24T00:07:58.387Z,14.30
2018-05-24T00:10:25.800Z,14.10
2018-05-24T00:12:54.049Z,13.80
2018-05-24T00:15:21.546Z,13.80
2018-05-24T00:17:49.774Z,13.60
2018-05-24T00:20:18.017Z,13.40
2018-05-24T00:22:45.757Z,13.40
2018-05-24T00:25:14.377Z,13.20
2018-05-24T00:27:41.870Z,13.20
2018-05-24T00:30:09.332Z,13.20
2018-05-24T00:32:36.868Z,13.20
2018-05-24T00:35:04.353Z,13.20
2018-05-24T00:37:31.811Z,13.20
2018-05-24T00:40:00.449Z,13.10
2018-05-24T00:42:27.911Z,13.10
2018-05-24T00:44:55.853Z,13.00
2018-05-24T00:47:25.341Z,13.00
2018-05-24T00:49:55.513Z,12.90
2018-05-24T00:52:22.969Z,12.90
2018-05-24T00:54:50.461Z,12.80
2018-05-24T00:57:18.073Z,12.80
2018-05-24T00:59:45.555Z,12.70
2018-05-24T01:02:13.053Z,12.60
2018-05-24T01:04:41.318Z,12.50
2018-05-24T01:07:09.999Z,12.40
2018-05-24T01:09:38.008Z,12.40
2018-05-24T01:12:06.089Z,12.30
2018-05-24T01:14:34.149Z,12.30
2018-05-24T01:17:01.617Z,12.20
2018-05-24T01:19:29.085Z,12.20
2018-05-24T01:21:57.007Z,12.10
2018-05-24T01:24:25.266Z,12.10
2018-05-24T01:26:52.762Z,12.00
2018-05-24T01:29:20.264Z,12.10
2018-05-24T01:31:47.792Z,12.00
2018-05-24T01:34:15.297Z,12.00
2018-05-24T01:36:54.759Z,12.00
2018-05-24T01:39:23.671Z,11.90
2018-05-24T01:41:51.172Z,11.80
2018-05-24T01:44:18.770Z,11.90
2018-05-24T01:46:47.038Z,12.00
2018-05-24T01:49:16.032Z,12.00
2018-05-24T01:51:44.299Z,12.00
2018-05-24T01:54:12.579Z,12.00
2018-05-24T01:56:40.663Z,11.90
2018-05-24T01:59:09.542Z,12.00
2018-05-24T02:01:38.574Z,12.00
2018-05-24T02:04:06.594Z,11.90
2018-05-24T02:06:34.677Z,12.00
2018-05-24T02:09:03.140Z,12.00
2018-05-24T02:11:32.251Z,12.10
2018-05-24T02:14:00.657Z,12.20
2018-05-24T02:16:28.372Z,12.20
2018-05-24T02:18:56.612Z,12.30
2018-05-24T02:21:24.316Z,12.40
2018-05-24T02:23:52.096Z,12.50
2018-05-24T02:26:21.832Z,12.60
2018-05-24T02:28:51.067Z,12.80
2018-05-24T02:31:18.528Z,12.80
2018-05-24T02:33:47.969Z,12.80
2018-05-24T02:36:16.320Z,13.00
2018-05-24T02:38:43.834Z,13.00
2018-05-24T02:41:11.772Z,13.10
2018-05-24T02:43:40.179Z,13.20
2018-05-24T02:46:08.184Z,13.20
2018-05-24T02:48:36.300Z,13.30
2018-05-24T02:51:04.578Z,13.40
2018-05-24T02:53:33.287Z,13.40
2018-05-24T02:56:00.797Z,13.50
2018-05-24T02:58:28.679Z,13.50
2018-05-24T03:00:57.113Z,13.60
2018-05-24T03:03:24.614Z,13.60
2018-05-24T03:05:53.138Z,13.70
2018-05-24T03:08:20.624Z,13.70
2018-05-24T03:10:48.135Z,13.70
2018-05-24T03:13:16.380Z,13.80
2018-05-24T03:15:43.861Z,13.80
2018-05-24T03:18:12.191Z,13.90
2018-05-24T03:20:39.794Z,13.90
2018-05-24T03:23:08.340Z,14.00
2018-05-24T03:25:36.287Z,14.00
2018-05-24T03:28:04.000Z,14.00
2018-05-24T03:30:32.241Z,14.10
2018-05-24T03:33:00.166Z,14.10
2018-05-24T03:35:28.408Z,14.20
2018-05-24T03:37:55.915Z,14.10
2018-05-24T03:40:24.147Z,14.30
2018-05-24T03:42:51.788Z,14.30
2018-05-24T03:45:20.759Z,14.40
2018-05-24T03:47:48.371Z,14.50
2018-05-24T03:50:16.685Z,14.50
2018-05-24T03:52:45.236Z,14.50
2018-05-24T03:55:13.515Z,14.60
2018-05-24T03:57:41.831Z,14.60
2018-05-24T04:00:21.935Z,14.60
2018-05-24T04:03:02.093Z,14.70
2018-05-24T04:05:31.260Z,14.80
2018-05-24T04:07:58.867Z,14.70
2018-05-24T04:10:27.129Z,14.90
2018-05-24T04:12:54.614Z,14.90
2018-05-24T04:15:22.113Z,15.00
2018-05-24T04:17:49.588Z,15.00
2018-05-24T04:20:17.463Z,15.10
2018-05-24T04:22:45.865Z,15.30
2018-05-24T04:25:14.113Z,15.40
2018-05-24T04:27:41.841Z,15.40
2018-05-24T04:30:09.403Z,15.50
2018-05-24T04:32:36.879Z,15.50
2018-05-24T04:35:04.610Z,15.60
2018-05-24T04:37:32.100Z,15.60
2018-05-24T04:39:59.590Z,15.70
2018-05-24T04:42:27.824Z,15.60
2018-05-24T04:44:55.293Z,15.60
2018-05-24T04:47:22.797Z,15.60
2018-05-24T04:49:50.281Z,15.60
2018-05-24T04:52:17.817Z,15.60
2018-05-24T04:54:45.232Z,15.60
2018-05-24T04:57:13.490Z,15.70
2018-05-24T04:59:40.974Z,15.60
2018-05-24T05:02:09.263Z,15.80
2018-05-24T05:04:37.547Z,15.80
2018-05-24T05:07:05.224Z,15.80
2018-05-24T05:09:34.466Z,15.90
2018-05-24T05:12:01.984Z,16.00
2018-05-24T05:14:30.040Z,16.00
2018-05-24T05:16:57.533Z,16.10
2018-05-24T05:19:25.173Z,16.10
2018-05-24T05:21:54.216Z,16.20
2018-05-24T05:24:22.146Z,16.20
2018-05-24T05:26:49.679Z,16.30
2018-05-24T05:29:17.191Z,16.30
2018-05-24T05:31:51.290Z,16.40
2018-05-24T05:34:18.785Z,16.50
2018-05-24T05:36:46.265Z,16.60
2018-05-24T05:39:14.264Z,16.60
2018-05-24T05:41:41.764Z,16.80
2018-05-24T05:44:09.263Z,16.90
2018-05-24T05:46:36.772Z,17.00
2018-05-24T05:49:04.399Z,17.10
2018-05-24T05:51:48.413Z,17.30
2018-05-24T05:54:15.883Z,17.50
2018-05-24T05:56:43.382Z,17.60
2018-05-24T05:59:10.859Z,17.80
2018-05-24T06:01:39.198Z,18.00
2018-05-24T06:04:06.635Z,18.00
2018-05-24T06:06:34.115Z,18.10
2018-05-24T06:09:01.590Z,18.10
2018-05-24T06:11:29.315Z,18.10
2018-05-24T06:13:56.905Z,18.10
2018-05-24T06:16:24.297Z,18.10
2018-05-24T06:18:53.280Z,18.10
2018-05-24T06:21:21.452Z,18.10
2018-05-24T06:23:48.894Z,17.90
2018-05-24T06:26:16.378Z,18.00
2018-05-24T06:28:44.611Z,18.00
2018-05-24T06:31:12.215Z,18.00
2018-05-24T06:33:40.817Z,18.00
2018-05-24T06:36:09.124Z,18.10
2018-05-24T06:38:36.604Z,18.10
2018-05-24T06:41:04.084Z,18.10
2018-05-24T06:43:32.313Z,18.30
2018-05-24T06:45:59.799Z,18.30
2018-05-24T06:48:27.665Z,18.50
2018-05-24T06:50:55.216Z,18.80
2018-05-24T06:53:22.692Z,19.30
2018-05-24T06:55:50.167Z,20.30
2018-05-24T06:58:18.393Z,22.50
2018-05-24T07:00:46.131Z,22.40
2018-05-24T07:03:13.580Z,23.00
2018-05-24T07:05:41.263Z,23.20
2018-05-24T07:08:08.725Z,23.80
2018-05-24T07:10:36.216Z,24.00
2018-05-24T07:13:03.687Z,23.70
2018-05-24T07:15:33.049Z,23.70
2018-05-24T07:18:00.541Z,24.50
2018-05-24T07:20:28.784Z,24.90
2018-05-24T07:22:56.485Z,24.90
2018-05-24T07:25:23.976Z,24.90
2018-05-24T07:27:51.465Z,25.40
2018-05-24T07:30:18.951Z,25.40
2018-05-24T07:32:46.424Z,26.10
2018-05-24T07:35:14.679Z,26.80
2018-05-24T07:37:42.186Z,26.80
2018-05-24T07:40:10.098Z,26.70
2018-05-24T07:42:37.556Z,26.00
2018-05-24T07:45:05.095Z,25.30
2018-05-24T07:47:33.028Z,24.70
2018-05-24T07:50:01.062Z,24.30
2018-05-24T07:52:28.781Z,24.50
2018-05-24T07:54:56.395Z,24.60
2018-05-24T07:57:24.863Z,24.10
2018-05-24T07:59:52.340Z,24.20
2018-05-24T08:02:20.798Z,24.00
2018-05-24T08:04:48.603Z,24.00
2018-05-24T08:07:16.874Z,24.00
2018-05-24T08:09:45.139Z,23.90
2018-05-24T08:12:13.401Z,23.60
2018-05-24T08:14:40.858Z,23.60
2018-05-24T08:17:09.091Z,23.50
2018-05-24T08:19:37.827Z,22.60
2018-05-24T08:22:05.973Z,22.60
2018-05-24T08:24:33.489Z,22.70
2018-05-24T08:27:01.014Z,22.70
2018-05-24T08:29:28.468Z,22.80
2018-05-24T08:31:55.956Z,23.10
2018-05-24T08:34:24.068Z,23.20
2018-05-24T08:36:52.277Z,23.30
2018-05-24T08:39:19.733Z,23.60
2018-05-24T08:41:47.934Z,24.00
2018-05-24T08:44:16.105Z,24.80
2018-05-24T08:46:45.554Z,26.00
2018-05-24T08:49:14.134Z,27.00
2018-05-24T08:51:42.392Z,27.20
2018-05-24T08:54:09.887Z,27.10
2018-05-24T08:56:37.616Z,27.50
2018-05-24T08:59:05.079Z,27.10
2018-05-24T09:01:32.687Z,27.30
2018-05-24T09:04:01.356Z,27.50
2018-05-24T09:06:28.875Z,27.60
2018-05-24T09:08:57.330Z,26.70
2018-05-24T09:11:25.853Z,24.40
2018-05-24T09:13:53.437Z,24.40
2018-05-24T09:16:20.944Z,23.90
2018-05-24T09:18:48.432Z,23.80
2018-05-24T09:21:15.883Z,23.70
2018-05-24T09:23:43.380Z,23.80
2018-05-24T09:26:10.824Z,24.30
2018-05-24T09:28:38.312Z,24.30
2018-05-24T09:31:06.552Z,24.80
2018-05-24T09:33:34.047Z,24.80
2018-05-24T09:36:02.269Z,25.30
2018-05-24T09:38:29.768Z,25.30
2018-05-24T09:40:57.985Z,25.30
2018-05-24T09:43:25.870Z,25.30
2018-05-24T09:45:53.591Z,25.30
2018-05-24T09:48:21.345Z,25.60
2018-05-24T09:50:49.631Z,25.90
2018-05-24T09:53:17.881Z,25.70
2018-05-24T09:55:45.384Z,25.70
2018-05-24T09:58:12.870Z,26.20
2018-05-24T10:00:40.346Z,26.20
2018-05-24T10:03:07.801Z,26.60
2018-05-24T10:05:35.273Z,27.20
2018-05-24T10:08:03.931Z,26.70
2018-05-24T10:10:31.973Z,26.70
2018-05-24T10:13:06.046Z,26.00
2018-05-24T10:15:34.344Z,26.20
2018-05-24T10:18:02.314Z,26.10
2018-05-24T10:20:31.012Z,25.50
2018-05-24T10:23:03.358Z,25.50
2018-05-24T10:25:31.826Z,24.50
2018-05-24T10:28:02.082Z,24.20
2018-05-24T10:30:29.608Z,24.10
2018-05-24T10:32:57.141Z,24.00
2018-05-24T10:35:24.624Z,24.30
2018-05-24T10:37:53.419Z,25.50
2018-05-24T10:40:21.684Z,26.20
2018-05-24T10:42:50.336Z,27.00
2018-05-24T10:45:17.866Z,27.00
2018-05-24T10:47:45.652Z,27.80
2018-05-24T10:50:13.162Z,28.30
2018-05-24T10:52:41.437Z,27.20
2018-05-24T10:55:08.907Z,27.20
2018-05-24T10:57:36.384Z,26.10
2018-05-24T11:00:04.583Z,25.10
2018-05-24T11:02:32.045Z,24.70
2018-05-24T11:04:59.538Z,24.40
2018-05-24T11:07:28.395Z,23.10
2018-05-24T11:09:55.954Z,23.00
2018-05-24T11:12:23.521Z,22.50
2018-05-24T11:14:50.969Z,22.10
2018-05-24T11:17:18.938Z,21.90
2018-05-24T11:19:46.396Z,22.00
2018-05-24T11:22:13.892Z,22.10
2018-05-24T11:24:42.152Z,22.40
2018-05-24T11:27:09.651Z,22.40
2018-05-24T11:29:37.141Z,22.70
2018-05-24T11:32:06.520Z,23.10
2018-05-24T11:34:34.733Z,22.90
2018-05-24T11:37:02.293Z,22.90
2018-05-24T11:39:30.497Z,22.50
2018-05-24T11:42:00.374Z,22.60
2018-05-24T11:44:27.881Z,22.60
2018-05-24T11:46:55.341Z,22.70
2018-05-24T11:49:23.392Z,22.90
2018-05-24T11:51:51.977Z,23.50
2018-05-24T11:54:19.911Z,23.50
2018-05-24T11:56:47.483Z,24.20
2018-05-24T11:59:15.237Z,25.10
2018-05-24T12:01:42.791Z,25.90
2018-05-24T12:04:11.604Z,26.50
2018-05-24T12:06:41.092Z,27.60
2018-05-24T12:09:08.580Z,27.50
2018-05-24T12:11:37.564Z,28.70
2018-05-24T12:14:05.788Z,28.60
2018-05-24T12:16:33.656Z,28.50
2018-05-24T12:19:01.123Z,27.80
2018-05-24T12:21:28.609Z,27.20
2018-05-24T12:23:56.862Z,27.00
2018-05-24T12:26:24.331Z,27.00
2018-05-24T12:28:51.796Z,27.00
2018-05-24T12:31:21.717Z,27.30
2018-05-24T12:33:49.782Z,27.50
2018-05-24T12:36:17.252Z,27.80
2018-05-24T12:38:44.704Z,28.10
2018-05-24T12:41:12.152Z,28.40
2018-05-24T12:43:39.648Z,28.20
2018-05-24T12:46:07.162Z,27.80
2018-05-24T12:48:35.398Z,27.30
2018-05-24T12:51:02.911Z,27.30
2018-05-24T12:53:30.383Z,26.90
2018-05-24T12:55:58.643Z,26.60
2018-05-24T12:58:26.511Z,26.60
2018-05-24T13:00:56.636Z,26.70
2018-05-24T13:03:24.281Z,26.70
2018-05-24T13:05:51.755Z,26.90
2018-05-24T13:08:19.224Z,26.80
2018-05-24T13:10:47.479Z,27.00
2018-05-24T13:13:15.197Z,26.90
2018-05-24T13:15:42.644Z,27.20
2018-05-24T13:18:11.988Z,26.70
2018-05-24T13:20:39.493Z,26.10
2018-05-24T13:23:07.022Z,25.70
2018-05-24T13:25:37.852Z,26.30
2018-05-24T13:28:05.335Z,26.30
2018-05-24T13:30:33.591Z,27.40
2018-05-24T13:33:01.056Z,27.30
2018-05-24T13:35:30.040Z,26.80
2018-05-24T13:37:57.575Z,26.80
2018-05-24T13:40:25.254Z,26.30
2018-05-24T13:42:52.705Z,26.30
2018-05-24T13:45:20.266Z,26.50
2018-05-24T13:47:48.919Z,27.70
2018-05-24T13:50:16.375Z,27.70
2018-05-24T13:52:43.915Z,27.20
2018-05-24T13:55:12.124Z,26.70
2018-05-24T13:57:44.600Z,26.60
2018-05-24T14:00:12.068Z,26.50
2018-05-24T14:02:39.653Z,26.60
2018-05-24T14:05:07.889Z,26.60
2018-05-24T14:07:35.365Z,26.60
2018-05-24T14:10:03.181Z,26.20
2018-05-24T14:12:30.619Z,26.40
2018-05-24T14:14:58.855Z,28.20
2018-05-24T14:17:26.921Z,28.10
2018-05-24T14:19:54.329Z,29.20
2018-05-24T14:22:22.655Z,29.80
2018-05-24T14:24:52.595Z,29.50
2018-05-24T14:27:20.477Z,28.60
2018-05-24T14:29:48.695Z,26.50
2018-05-24T14:32:16.203Z,26.50
2018-05-24T14:34:45.364Z,25.20
2018-05-24T14:37:12.837Z,25.20
2018-05-24T14:39:40.304Z,24.60
2018-05-24T14:42:07.758Z,24.20
2018-05-24T14:44:35.236Z,24.00
2018-05-24T14:47:03.464Z,24.40
2018-05-24T14:49:31.098Z,24.40
2018-05-24T14:51:58.563Z,24.80
2018-05-24T14:54:26.052Z,25.30
2018-05-24T14:56:55.429Z,25.40
2018-05-24T14:59:23.649Z,25.60
2018-05-24T15:01:51.136Z,25.80
2018-05-24T15:04:18.602Z,25.90
2018-05-24T15:06:46.314Z,26.30
2018-05-24T15:09:13.787Z,26.70
2018-05-24T15:11:41.723Z,26.90
2018-05-24T15:14:09.202Z,27.50
2018-05-24T15:16:36.659Z,28.50
2018-05-24T15:19:04.136Z,29.50
2018-05-24T15:21:32.410Z,31.00
2018-05-24T15:24:01.040Z,31.50
2018-05-24T15:26:28.518Z,31.50
2018-05-24T15:28:59.323Z,31.60
2018-05-24T15:31:26.907Z,31.60
2018-05-24T15:33:54.399Z,31.90
2018-05-24T15:36:22.012Z,31.20
2018-05-24T15:38:50.264Z,30.40
2018-05-24T15:41:17.745Z,29.60
2018-05-24T15:43:45.222Z,29.30
2018-05-24T15:46:12.695Z,29.40
2018-05-24T15:48:40.148Z,29.50
2018-05-24T15:51:07.635Z,29.10
2018-05-24T15:53:36.006Z,27.80
2018-05-24T15:56:03.473Z,27.70
2018-05-24T15:58:31.738Z,25.90
2018-05-24T16:01:00.465Z,25.90
2018-05-24T16:03:27.976Z,25.80
2018-05-24T16:05:55.387Z,25.80
2018-05-24T16:08:22.871Z,25.70
2018-05-24T16:10:50.344Z,25.50
2018-05-24T16:13:17.831Z,25.50
2018-05-24T16:15:46.095Z,26.00
2018-05-24T16:18:14.351Z,26.50
2018-05-24T16:20:41.820Z,26.50
2018-05-24T16:23:09.366Z,27.00
2018-05-24T16:25:36.848Z,27.30
2018-05-24T16:28:05.144Z,27.80
2018-05-24T16:30:32.584Z,27.80
2018-05-24T16:33:00.936Z,28.00
2018-05-24T16:35:28.667Z,28.20
2018-05-24T16:37:56.121Z,27.50
2018-05-24T16:40:23.593Z,27.00
2018-05-24T16:42:52.117Z,26.60
2018-05-24T16:45:20.349Z,27.40
2018-05-24T16:47:47.973Z,27.40
2018-05-24T16:50:16.156Z,27.40
2018-05-24T16:52:43.728Z,27.40
2018-05-24T16:55:11.643Z,27.60
2018-05-24T16:57:39.268Z,27.60
2018-05-24T17:00:06.791Z,27.60
2018-05-24T17:02:35.033Z,27.70
2018-05-24T17:05:02.494Z,27.70
2018-05-24T17:07:29.975Z,27.80
2018-05-24T17:09:58.196Z,27.30
2018-05-24T17:12:25.677Z,27.30
2018-05-24T17:14:53.140Z,27.20
2018-05-24T17:17:20.602Z,27.40
2018-05-24T17:19:48.098Z,27.10
2018-05-24T17:22:17.196Z,26.50
2018-05-24T17:24:44.674Z,25.50
2018-05-24T17:27:12.560Z,24.70
2018-05-24T17:29:40.009Z,24.00
2018-05-24T17:32:07.483Z,23.70
2018-05-24T17:34:34.970Z,23.40
2018-05-24T17:37:03.224Z,22.90
2018-05-24T17:39:31.497Z,22.90
2018-05-24T17:41:59.000Z,22.80
2018-05-24T17:44:26.471Z,22.70
2018-05-24T17:46:53.974Z,22.60
2018-05-24T17:49:21.482Z,22.60
2018-05-24T17:51:48.988Z,22.50
2018-05-24T17:54:17.046Z,22.40
2018-05-24T17:56:44.531Z,22.30
2018-05-24T17:59:12.758Z,22.00
2018-05-24T18:01:40.225Z,22.00
2018-05-24T18:04:08.531Z,22.00
2018-05-24T18:06:36.015Z,21.90
2018-05-24T18:09:03.536Z,21.70
2018-05-24T18:11:31.463Z,21.60
2018-05-24T18:13:58.974Z,21.40
2018-05-24T18:16:26.457Z,21.30
2018-05-24T18:18:53.912Z,21.00
2018-05-24T18:21:21.423Z,20.90
2018-05-24T18:23:49.060Z,20.70
2018-05-24T18:26:16.544Z,20.60
2018-05-24T18:28:43.991Z,20.40
2018-05-24T18:31:12.060Z,20.30
2018-05-24T18:33:39.526Z,20.10
2018-05-24T18:36:07.040Z,20.00
2018-05-24T18:38:35.252Z,19.70
2018-05-24T18:41:03.497Z,19.50
2018-05-24T18:43:32.220Z,19.50
2018-05-24T18:45:59.731Z,19.40
2018-05-24T18:48:27.286Z,19.30
2018-05-24T18:50:57.950Z,19.10
2018-05-24T18:53:27.860Z,19.10
2018-05-24T18:55:55.319Z,19.00
2018-05-24T18:58:23.164Z,18.90
2018-05-24T19:00:50.970Z,18.80
2018-05-24T19:03:18.425Z,18.70
2018-05-24T19:05:46.318Z,18.60
2018-05-24T19:08:13.772Z,18.50
2018-05-24T19:10:41.231Z,18.40
2018-05-24T19:13:08.711Z,18.30
2018-05-24T19:15:36.935Z,18.20
2018-05-24T19:18:04.424Z,18.10
2018-05-24T19:20:32.424Z,18.20
2018-05-24T19:23:00.679Z,18.10
2018-05-24T19:25:28.970Z,18.10
2018-05-24T19:27:57.211Z,17.90
2018-05-24T19:30:24.683Z,17.90
2018-05-24T19:32:52.230Z,17.90
2018-05-24T19:35:20.030Z,17.80
2018-05-24T19:37:48.256Z,17.60
2018-05-24T19:40:15.712Z,17.60
2018-05-24T19:42:43.173Z,17.60
2018-05-24T19:45:10.671Z,17.60
2018-05-24T19:47:38.936Z,17.60
2018-05-24T19:50:06.391Z,17.60
2018-05-24T19:52:34.620Z,17.70
2018-05-24T19:55:02.129Z,17.70
2018-05-24T19:57:32.323Z,17.80
2018-05-24T20:00:00.601Z,17.80
2018-05-24T20:02:28.663Z,17.80
2018-05-24T20:04:56.395Z,17.80
2018-05-24T20:07:24.194Z,17.80
2018-05-24T20:09:51.928Z,17.80
2018-05-24T20:12:21.545Z,17.80
2018-05-24T20:14:49.300Z,17.70
2018-05-24T20:17:17.246Z,17.60
2018-05-24T20:19:46.335Z,17.50
2018-05-24T20:22:14.882Z,17.40
2018-05-24T20:24:42.675Z,17.40
2018-05-24T20:27:11.193Z,17.30
2018-05-24T20:29:38.969Z,17.30
2018-05-24T20:32:06.701Z,17.30
2018-05-24T20:34:34.426Z,17.30
2018-05-24T20:37:02.159Z,17.20
2018-05-24T20:39:30.214Z,17.20
2018-05-24T20:41:57.898Z,17.20
2018-05-24T20:44:25.437Z,17.20
2018-05-24T20:46:52.935Z,17.20
2018-05-24T20:49:20.411Z,17.20
2018-05-24T20:51:47.912Z,17.10
2018-05-24T20:54:15.415Z,17.10
2018-05-24T20:56:42.875Z,17.00
2018-05-24T20:59:10.734Z,17.00
2018-05-24T21:01:38.211Z,17.00
2018-05-24T21:04:06.454Z,16.90
2018-05-24T21:06:33.989Z,16.90
2018-05-24T21:09:01.535Z,16.90
2018-05-24T21:11:28.992Z,16.90
2018-05-24T21:13:56.476Z,16.80
2018-05-24T21:16:24.727Z,16.80
2018-05-24T21:18:52.195Z,16.80
2018-05-24T21:21:19.652Z,16.80
2018-05-24T21:23:47.108Z,16.80
2018-05-24T21:26:14.580Z,16.80
2018-05-24T21:28:42.088Z,16.80
2018-05-24T21:31:12.244Z,17.00
2018-05-24T21:33:39.704Z,17.00
2018-05-24T21:36:07.213Z,17.00
2018-05-24T21:38:35.504Z,17.00
2018-05-24T21:41:05.488Z,17.00
2018-05-24T21:43:32.952Z,17.00
2018-05-24T21:46:00.449Z,17.00
2018-05-24T21:48:27.984Z,16.90
2018-05-24T21:50:56.227Z,16.80
2018-05-24T21:53:23.711Z,16.80
2018-05-24T21:55:52.729Z,16.70
2018-05-24T21:58:21.550Z,16.70
2018-05-24T22:00:52.949Z,16.70
2018-05-24T22:03:21.188Z,16.60
2018-05-24T22:05:49.610Z,16.60
2018-05-24T22:08:17.848Z,16.60
2018-05-24T22:10:45.314Z,16.60
2018-05-24T22:13:12.783Z,16.60
2018-05-24T22:15:40.581Z,16.60
2018-05-24T22:18:08.433Z,16.50
2018-05-24T22:20:37.140Z,16.40
2018-05-24T22:23:06.508Z,16.30
2018-05-24T22:25:33.966Z,16.30
2018-05-24T22:28:01.436Z,16.20
2018-05-24T22:30:30.240Z,16.10
2018-05-24T22:32:58.536Z,16.10
2018-05-24T22:35:25.992Z,16.10
2018-05-24T22:37:54.035Z,16.10
2018-05-24T22:40:22.296Z,15.90
2018-05-24T22:42:49.764Z,15.90
2018-05-24T22:45:17.999Z,15.80
2018-05-24T22:47:45.467Z,15.80
2018-05-24T22:50:12.935Z,15.80
2018-05-24T22:52:40.865Z,15.80
2018-05-24T22:55:08.312Z,15.70
2018-05-24T22:57:35.827Z,15.70
2018-05-24T23:00:03.313Z,15.60
2018-05-24T23:02:30.793Z,15.60
2018-05-24T23:04:58.268Z,15.60
2018-05-24T23:07:26.020Z,15.60
2018-05-24T23:09:53.494Z,15.60
2018-05-24T23:12:21.287Z,15.60
2018-05-24T23:14:48.769Z,15.60
2018-05-24T23:17:16.621Z,15.60
2018-05-24T23:19:44.869Z,15.60
2018-05-24T23:22:12.348Z,15.60
2018-05-24T23:24:40.599Z,15.50
2018-05-24T23:27:08.492Z,15.50
2018-05-24T23:29:38.491Z,15.40
2018-05-24T23:32:07.863Z,15.40
2018-05-24T23:34:35.327Z,15.40
2018-05-24T23:37:03.822Z,15.40
2018-05-24T23:39:33.781Z,15.30
2018-05-24T23:42:01.228Z,15.30
2018-05-24T23:44:29.477Z,15.10
2018-05-24T23:46:56.957Z,15.20
2018-05-24T23:49:25.748Z,15.10
2018-05-24T23:51:53.995Z,15.10
2018-05-24T23:54:21.448Z,15.10
2018-05-24T23:56:48.940Z,15.10
2018-05-24T23:59:17.191Z,15.10
